createdAt,value
2017-10-31T18:34:22.765Z,15.80
2017-10-31T18:36:49.389Z,15.60
2017-10-31T18:39:16.398Z,11.80
2017-10-31T18:41:43.761Z,9.50
2017-10-31T18:44:10.914Z,9.40
2017-10-31T18:46:37.473Z,9.20
2017-10-31T18:49:04.314Z,9.00
2017-10-31T18:51:30.924Z,8.90
2017-10-31T18:53:58.324Z,8.80
2017-10-31T18:56:24.824Z,8.70
2017-10-31T18:58:51.369Z,8.80
2017-10-31T19:01:18.026Z,8.60
2017-10-31T19:03:45.496Z,8.50
2017-10-31T19:06:12.154Z,8.40
2017-10-31T19:08:40.893Z,8.40
2017-10-31T19:11:07.741Z,8.50
2017-10-31T19:13:34.437Z,8.40
2017-10-31T19:16:01.223Z,8.40
2017-10-31T19:18:28.214Z,8.40
2017-10-31T19:20:54.815Z,8.40
2017-10-31T19:23:21.662Z,8.40
2017-10-31T19:25:49.410Z,8.20
2017-10-31T19:28:16.031Z,8.30
2017-10-31T19:30:42.713Z,8.30
2017-10-31T19:33:09.631Z,8.30
2017-10-31T19:35:38.196Z,8.20
2017-10-31T19:38:05.904Z,8.20
2017-10-31T19:40:34.317Z,8.20
2017-10-31T19:43:02.319Z,8.20
2017-10-31T19:45:29.717Z,8.20
2017-10-31T19:47:56.442Z,8.20
2017-10-31T19:50:24.157Z,8.20
2017-10-31T19:52:51.511Z,8.20
2017-10-31T19:55:18.559Z,8.20
2017-10-31T19:57:46.309Z,8.20
2017-10-31T20:00:13.045Z,8.20
2017-10-31T20:02:39.837Z,8.30
2017-10-31T20:05:07.485Z,8.30
2017-10-31T20:07:34.199Z,8.30
2017-10-31T20:10:01.807Z,8.30
2017-10-31T20:12:28.374Z,8.20
2017-10-31T20:14:55.151Z,8.20
2017-10-31T20:17:22.235Z,8.30
2017-10-31T20:19:49.107Z,8.30
2017-10-31T20:22:16.138Z,7.80
2017-10-31T20:24:42.786Z,8.30
2017-10-31T20:27:10.230Z,8.30
2017-10-31T20:29:37.983Z,8.30
2017-10-31T20:32:04.663Z,8.30
2017-10-31T20:34:31.950Z,8.30
2017-10-31T20:36:58.614Z,8.30
2017-10-31T20:39:25.434Z,8.30
2017-10-31T20:41:52.189Z,8.30
2017-10-31T20:44:18.755Z,8.30
2017-10-31T20:46:45.651Z,8.20
2017-10-31T20:49:12.242Z,8.20
2017-10-31T20:51:40.051Z,8.10
2017-10-31T20:54:08.986Z,8.10
2017-10-31T20:56:35.577Z,8.20
2017-10-31T20:59:02.338Z,8.20
2017-10-31T21:01:28.853Z,8.20
2017-10-31T21:03:55.537Z,8.30
2017-10-31T21:06:22.026Z,8.20
2017-10-31T21:08:48.516Z,8.30
2017-10-31T21:11:15.172Z,8.20
2017-10-31T21:13:42.403Z,8.30
2017-10-31T21:16:09.062Z,8.20
2017-10-31T21:18:36.370Z,8.30
2017-10-31T21:21:02.854Z,8.30
